sensor_id;sensor_type;location;lat;lon;timestamp;P1;durP1;ratioP1;P2;durP2;ratioP2
75584;SDS011;64162;53.508;10.476;2023-08-30T10:36:07;6.28;;;3.70;;
75584;SDS011;64162;53.508;10.476;2023-08-30T10:38:34;4.97;;;2.83;;
75584;SDS011;64162;53.508;10.476;2023-08-30T10:41:08;7.10;;;2.80;;
75584;SDS011;64162;53.508;10.476;2023-08-30T10:43:35;8.02;;;2.78;;
75584;SDS011;64162;53.508;10.476;2023-08-30T10:46:04;2.20;;;1.80;;
75584;SDS011;64162;53.508;10.476;2023-08-30T10:48:34;3.65;;;1.80;;
75584;SDS011;64162;53.508;10.476;2023-08-30T10:51:34;3.08;;;1.88;;
75584;SDS011;64162;53.508;10.476;2023-08-30T10:56:56;5.18;;;3.20;;
75584;SDS011;64162;53.508;10.476;2023-08-30T10:59:27;5.07;;;3.30;;
75584;SDS011;64162;53.508;10.476;2023-08-30T11:01:56;6.15;;;3.42;;
75584;SDS011;64162;53.508;10.476;2023-08-30T11:04:22;7.57;;;3.85;;
75584;SDS011;64162;53.508;10.476;2023-08-30T11:06:50;5.57;;;4.03;;
75584;SDS011;64162;53.508;10.476;2023-08-30T11:27:04;3.65;;;2.30;;
75584;SDS011;64162;53.508;10.476;2023-08-30T11:29:31;6.28;;;2.58;;
75584;SDS011;64162;53.508;10.476;2023-08-30T11:31:57;5.05;;;2.75;;
75584;SDS011;64162;53.508;10.476;2023-08-30T11:48:12;3.65;;;2.53;;
75584;SDS011;64162;53.508;10.476;2023-08-30T11:50:40;4.78;;;2.47;;
75584;SDS011;64162;53.508;10.476;2023-08-30T11:53:12;3.83;;;2.42;;
75584;SDS011;64162;53.508;10.476;2023-08-30T11:55:39;4.70;;;2.67;;
75584;SDS011;64162;53.508;10.476;2023-08-30T11:58:08;4.78;;;2.50;;
75584;SDS011;64162;53.508;10.476;2023-08-30T12:00:34;4.30;;;2.85;;
75584;SDS011;64162;53.508;10.476;2023-08-30T12:03:01;3.83;;;2.75;;
75584;SDS011;64162;53.508;10.476;2023-08-30T12:05:28;3.25;;;2.40;;
75584;SDS011;64162;53.508;10.476;2023-08-30T12:08:00;5.22;;;3.00;;
75584;SDS011;64162;53.508;10.476;2023-08-30T12:10:28;4.95;;;2.38;;
75584;SDS011;64162;53.508;10.476;2023-08-30T12:12:55;3.45;;;2.50;;
75584;SDS011;64162;53.508;10.476;2023-08-30T12:15:22;4.72;;;2.60;;
75584;SDS011;64162;53.508;10.476;2023-08-30T12:17:51;2.85;;;2.20;;
75584;SDS011;64162;53.508;10.476;2023-08-30T12:20:17;3.95;;;2.55;;
75584;SDS011;64162;53.508;10.476;2023-08-30T12:22:46;4.25;;;2.70;;
75584;SDS011;64162;53.508;10.476;2023-08-30T12:25:17;4.20;;;2.78;;
75584;SDS011;64162;53.508;10.476;2023-08-30T12:27:49;3.70;;;2.25;;
75584;SDS011;64162;53.508;10.476;2023-08-30T12:30:16;3.92;;;2.22;;
75584;SDS011;64162;53.508;10.476;2023-08-30T12:32:46;3.25;;;2.33;;
75584;SDS011;64162;53.508;10.476;2023-08-30T12:35:13;3.50;;;2.20;;
75584;SDS011;64162;53.508;10.476;2023-08-30T12:37:40;2.90;;;2.15;;
75584;SDS011;64162;53.508;10.476;2023-08-30T12:40:07;4.25;;;2.30;;
75584;SDS011;64162;53.508;10.476;2023-08-30T12:42:34;3.00;;;2.30;;
75584;SDS011;64162;53.508;10.476;2023-08-30T12:45:01;3.40;;;2.40;;
75584;SDS011;64162;53.508;10.476;2023-08-30T12:47:29;5.35;;;2.70;;
75584;SDS011;64162;53.508;10.476;2023-08-30T12:49:56;4.93;;;2.35;;
75584;SDS011;64162;53.508;10.476;2023-08-30T12:52:23;6.18;;;2.40;;
75584;SDS011;64162;53.508;10.476;2023-08-30T12:54:49;6.10;;;2.70;;
75584;SDS011;64162;53.508;10.476;2023-08-30T14:00:40;5.60;;;3.17;;
75584;SDS011;64162;53.508;10.476;2023-08-30T14:03:07;4.65;;;2.95;;
75584;SDS011;64162;53.508;10.476;2023-08-30T14:05:36;10.27;;;3.15;;
75584;SDS011;64162;53.508;10.476;2023-08-30T14:08:06;4.53;;;2.80;;
75584;SDS011;64162;53.508;10.476;2023-08-30T14:10:34;4.20;;;2.97;;
75584;SDS011;64162;53.508;10.476;2023-08-30T14:13:00;10.70;;;3.63;;
75584;SDS011;64162;53.508;10.476;2023-08-30T14:15:27;7.30;;;3.08;;
75584;SDS011;64162;53.508;10.476;2023-08-30T14:17:54;4.60;;;2.95;;
75584;SDS011;64162;53.508;10.476;2023-08-30T14:20:20;6.78;;;2.85;;
75584;SDS011;64162;53.508;10.476;2023-08-30T14:22:47;4.18;;;2.92;;
75584;SDS011;64162;53.508;10.476;2023-08-30T14:25:14;5.32;;;3.05;;
75584;SDS011;64162;53.508;10.476;2023-08-30T14:27:40;4.88;;;2.90;;
75584;SDS011;64162;53.508;10.476;2023-08-30T14:30:07;7.32;;;3.25;;
75584;SDS011;64162;53.508;10.476;2023-08-30T14:32:34;5.93;;;3.17;;
75584;SDS011;64162;53.508;10.476;2023-08-30T14:35:02;6.13;;;2.92;;
75584;SDS011;64162;53.508;10.476;2023-08-30T14:37:29;5.03;;;2.92;;
75584;SDS011;64162;53.508;10.476;2023-08-30T14:39:56;5.10;;;2.90;;
75584;SDS011;64162;53.508;10.476;2023-08-30T14:42:22;5.55;;;2.97;;
75584;SDS011;64162;53.508;10.476;2023-08-30T14:44:49;3.78;;;2.80;;
75584;SDS011;64162;53.508;10.476;2023-08-30T14:47:19;4.57;;;2.85;;
75584;SDS011;64162;53.508;10.476;2023-08-30T14:49:47;4.85;;;2.80;;
75584;SDS011;64162;53.508;10.476;2023-08-30T14:52:14;8.40;;;3.35;;
75584;SDS011;64162;53.508;10.476;2023-08-30T14:54:41;4.70;;;3.28;;
75584;SDS011;64162;53.508;10.476;2023-08-30T14:57:08;5.72;;;2.72;;
75584;SDS011;64162;53.508;10.476;2023-08-30T14:59:35;5.43;;;2.67;;
75584;SDS011;64162;53.508;10.476;2023-08-30T15:02:01;3.60;;;2.42;;
75584;SDS011;64162;53.508;10.476;2023-08-30T15:04:28;4.35;;;2.78;;
75584;SDS011;64162;53.508;10.476;2023-08-30T15:06:55;4.82;;;3.20;;
75584;SDS011;64162;53.508;10.476;2023-08-30T15:09:21;5.35;;;2.75;;
75584;SDS011;64162;53.508;10.476;2023-08-30T15:11:48;6.32;;;2.88;;
75584;SDS011;64162;53.508;10.476;2023-08-30T15:14:14;7.60;;;2.95;;
75584;SDS011;64162;53.508;10.476;2023-08-30T15:16:41;5.47;;;2.90;;
75584;SDS011;64162;53.508;10.476;2023-08-30T15:19:08;3.72;;;2.70;;
75584;SDS011;64162;53.508;10.476;2023-08-30T15:21:35;7.03;;;3.67;;
75584;SDS011;64162;53.508;10.476;2023-08-30T15:24:02;7.18;;;3.13;;
75584;SDS011;64162;53.508;10.476;2023-08-30T15:26:32;5.03;;;3.00;;
75584;SDS011;64162;53.508;10.476;2023-08-30T15:28:59;4.43;;;3.05;;
75584;SDS011;64162;53.508;10.476;2023-08-30T15:31:26;5.78;;;2.80;;
75584;SDS011;64162;53.508;10.476;2023-08-30T15:33:53;5.78;;;2.80;;
75584;SDS011;64162;53.508;10.476;2023-08-30T15:36:20;4.20;;;3.00;;
75584;SDS011;64162;53.508;10.476;2023-08-30T15:38:47;5.50;;;3.17;;
75584;SDS011;64162;53.508;10.476;2023-08-30T15:41:16;4.20;;;2.90;;
75584;SDS011;64162;53.508;10.476;2023-08-30T15:43:42;4.22;;;2.83;;
75584;SDS011;64162;53.508;10.476;2023-08-30T15:46:09;5.43;;;3.13;;
75584;SDS011;64162;53.508;10.476;2023-08-30T15:48:38;4.43;;;3.22;;
75584;SDS011;64162;53.508;10.476;2023-08-30T15:51:06;3.97;;;2.90;;
75584;SDS011;64162;53.508;10.476;2023-08-30T15:53:34;8.50;;;3.00;;
75584;SDS011;64162;53.508;10.476;2023-08-30T15:56:01;6.30;;;3.10;;
75584;SDS011;64162;53.508;10.476;2023-08-30T15:58:28;4.53;;;2.90;;
75584;SDS011;64162;53.508;10.476;2023-08-30T16:00:55;4.78;;;3.00;;
75584;SDS011;64162;53.508;10.476;2023-08-30T16:05:55;5.57;;;3.42;;
75584;SDS011;64162;53.508;10.476;2023-08-30T16:08:22;7.53;;;3.13;;
75584;SDS011;64162;53.508;10.476;2023-08-30T16:10:54;4.75;;;3.15;;
75584;SDS011;64162;53.508;10.476;2023-08-30T16:13:21;5.57;;;3.10;;
75584;SDS011;64162;53.508;10.476;2023-08-30T16:15:48;4.93;;;2.80;;
75584;SDS011;64162;53.508;10.476;2023-08-30T16:18:14;3.90;;;2.78;;
75584;SDS011;64162;53.508;10.476;2023-08-30T16:20:42;5.35;;;2.85;;
75584;SDS011;64162;53.508;10.476;2023-08-30T16:23:08;5.60;;;2.58;;
75584;SDS011;64162;53.508;10.476;2023-08-30T16:25:35;3.97;;;2.63;;
75584;SDS011;64162;53.508;10.476;2023-08-30T16:28:02;6.03;;;3.38;;
75584;SDS011;64162;53.508;10.476;2023-08-30T16:30:29;3.90;;;2.60;;
75584;SDS011;64162;53.508;10.476;2023-08-30T16:32:57;3.55;;;2.42;;
75584;SDS011;64162;53.508;10.476;2023-08-30T16:35:24;4.47;;;2.72;;
75584;SDS011;64162;53.508;10.476;2023-08-30T16:37:51;3.75;;;2.55;;
75584;SDS011;64162;53.508;10.476;2023-08-30T16:40:18;3.75;;;2.67;;
75584;SDS011;64162;53.508;10.476;2023-08-30T16:42:45;5.00;;;2.70;;
75584;SDS011;64162;53.508;10.476;2023-08-30T16:45:11;4.03;;;2.70;;
75584;SDS011;64162;53.508;10.476;2023-08-30T16:47:38;5.82;;;3.20;;
75584;SDS011;64162;53.508;10.476;2023-08-30T16:50:08;5.43;;;3.00;;
75584;SDS011;64162;53.508;10.476;2023-08-30T16:52:35;4.82;;;2.75;;
75584;SDS011;64162;53.508;10.476;2023-08-30T16:55:02;4.15;;;2.70;;
75584;SDS011;64162;53.508;10.476;2023-08-30T16:57:29;4.53;;;3.00;;
75584;SDS011;64162;53.508;10.476;2023-08-30T16:59:55;6.38;;;3.03;;
75584;SDS011;64162;53.508;10.476;2023-08-30T17:02:23;4.43;;;2.83;;
75584;SDS011;64162;53.508;10.476;2023-08-30T17:04:49;4.32;;;3.00;;
75584;SDS011;64162;53.508;10.476;2023-08-30T17:07:17;4.60;;;3.20;;
75584;SDS011;64162;53.508;10.476;2023-08-30T17:09:43;5.45;;;3.10;;
75584;SDS011;64162;53.508;10.476;2023-08-30T17:12:10;4.43;;;3.00;;
75584;SDS011;64162;53.508;10.476;2023-08-30T17:14:37;4.55;;;3.13;;
75584;SDS011;64162;53.508;10.476;2023-08-30T17:17:03;5.57;;;3.55;;
75584;SDS011;64162;53.508;10.476;2023-08-30T17:19:30;5.30;;;3.40;;
75584;SDS011;64162;53.508;10.476;2023-08-30T17:21:56;4.97;;;3.42;;
75584;SDS011;64162;53.508;10.476;2023-08-30T17:24:23;6.45;;;4.03;;
75584;SDS011;64162;53.508;10.476;2023-08-30T17:26:50;5.05;;;3.42;;
75584;SDS011;64162;53.508;10.476;2023-08-30T17:29:16;6.63;;;3.75;;
75584;SDS011;64162;53.508;10.476;2023-08-30T17:31:44;5.50;;;3.72;;
75584;SDS011;64162;53.508;10.476;2023-08-30T17:34:11;5.68;;;4.47;;
75584;SDS011;64162;53.508;10.476;2023-08-30T17:36:37;7.68;;;5.18;;
75584;SDS011;64162;53.508;10.476;2023-08-30T17:39:09;8.55;;;5.50;;
75584;SDS011;64162;53.508;10.476;2023-08-30T17:41:36;8.50;;;6.00;;
75584;SDS011;64162;53.508;10.476;2023-08-30T17:44:03;7.97;;;5.57;;
75584;SDS011;64162;53.508;10.476;2023-08-30T17:46:30;8.35;;;5.40;;
75584;SDS011;64162;53.508;10.476;2023-08-30T17:48:58;9.77;;;6.47;;
75584;SDS011;64162;53.508;10.476;2023-08-30T17:51:25;8.95;;;6.15;;
75584;SDS011;64162;53.508;10.476;2023-08-30T17:53:52;8.40;;;6.22;;
75584;SDS011;64162;53.508;10.476;2023-08-30T17:56:18;8.50;;;6.72;;
75584;SDS011;64162;53.508;10.476;2023-08-30T17:58:48;8.50;;;6.13;;
75584;SDS011;64162;53.508;10.476;2023-08-30T18:01:16;12.38;;;7.00;;
75584;SDS011;64162;53.508;10.476;2023-08-30T18:03:44;8.93;;;6.90;;
75584;SDS011;64162;53.508;10.476;2023-08-30T18:06:11;7.82;;;5.65;;
75584;SDS011;64162;53.508;10.476;2023-08-30T18:08:42;9.95;;;6.53;;
75584;SDS011;64162;53.508;10.476;2023-08-30T18:11:14;8.60;;;5.82;;
75584;SDS011;64162;53.508;10.476;2023-08-30T18:13:42;7.47;;;5.95;;
75584;SDS011;64162;53.508;10.476;2023-08-30T18:16:10;7.57;;;5.55;;
75584;SDS011;64162;53.508;10.476;2023-08-30T18:18:38;8.02;;;5.60;;
75584;SDS011;64162;53.508;10.476;2023-08-30T18:21:05;8.57;;;5.78;;
75584;SDS011;64162;53.508;10.476;2023-08-30T18:23:33;8.00;;;5.78;;
75584;SDS011;64162;53.508;10.476;2023-08-30T18:26:00;10.75;;;6.20;;
75584;SDS011;64162;53.508;10.476;2023-08-30T18:28:27;7.78;;;5.55;;
75584;SDS011;64162;53.508;10.476;2023-08-30T18:30:53;9.95;;;6.55;;
75584;SDS011;64162;53.508;10.476;2023-08-30T18:33:20;8.88;;;6.30;;
75584;SDS011;64162;53.508;10.476;2023-08-30T18:35:46;11.77;;;6.47;;
75584;SDS011;64162;53.508;10.476;2023-08-30T18:38:13;11.82;;;7.50;;
75584;SDS011;64162;53.508;10.476;2023-08-30T18:40:40;8.60;;;6.50;;
75584;SDS011;64162;53.508;10.476;2023-08-30T18:43:06;10.18;;;6.40;;
75584;SDS011;64162;53.508;10.476;2023-08-30T18:45:33;9.65;;;6.80;;
75584;SDS011;64162;53.508;10.476;2023-08-30T18:48:00;10.80;;;6.68;;
75584;SDS011;64162;53.508;10.476;2023-08-30T18:50:27;8.68;;;6.43;;
75584;SDS011;64162;53.508;10.476;2023-08-30T18:52:53;7.72;;;5.72;;
75584;SDS011;64162;53.508;10.476;2023-08-30T18:55:20;11.57;;;6.68;;
75584;SDS011;64162;53.508;10.476;2023-08-30T18:57:47;10.00;;;6.32;;
75584;SDS011;64162;53.508;10.476;2023-08-30T19:00:13;11.27;;;6.43;;
75584;SDS011;64162;53.508;10.476;2023-08-30T19:02:40;9.52;;;6.10;;
75584;SDS011;64162;53.508;10.476;2023-08-30T19:05:07;8.93;;;6.40;;
75584;SDS011;64162;53.508;10.476;2023-08-30T19:07:35;9.98;;;6.50;;
75584;SDS011;64162;53.508;10.476;2023-08-30T19:10:01;10.43;;;6.90;;
75584;SDS011;64162;53.508;10.476;2023-08-30T19:12:28;9.90;;;6.22;;
75584;SDS011;64162;53.508;10.476;2023-08-30T19:14:54;10.40;;;6.32;;
75584;SDS011;64162;53.508;10.476;2023-08-30T19:17:21;10.52;;;6.35;;
75584;SDS011;64162;53.508;10.476;2023-08-30T19:19:48;9.90;;;6.35;;
75584;SDS011;64162;53.508;10.476;2023-08-30T19:22:14;11.32;;;6.68;;
75584;SDS011;64162;53.508;10.476;2023-08-30T19:24:42;8.63;;;6.07;;
75584;SDS011;64162;53.508;10.476;2023-08-30T19:27:10;8.75;;;6.13;;
75584;SDS011;64162;53.508;10.476;2023-08-30T19:29:37;10.70;;;7.18;;
75584;SDS011;64162;53.508;10.476;2023-08-30T19:32:04;11.18;;;6.15;;
75584;SDS011;64162;53.508;10.476;2023-08-30T19:34:31;11.23;;;7.00;;
75584;SDS011;64162;53.508;10.476;2023-08-30T19:36:57;10.93;;;6.65;;
75584;SDS011;64162;53.508;10.476;2023-08-30T19:39:24;9.65;;;6.28;;
75584;SDS011;64162;53.508;10.476;2023-08-30T19:41:55;10.75;;;7.32;;
75584;SDS011;64162;53.508;10.476;2023-08-30T19:44:24;9.63;;;7.15;;
75584;SDS011;64162;53.508;10.476;2023-08-30T19:46:50;10.23;;;7.18;;
75584;SDS011;64162;53.508;10.476;2023-08-30T19:49:17;11.10;;;7.40;;
75584;SDS011;64162;53.508;10.476;2023-08-30T19:51:45;11.02;;;7.68;;
75584;SDS011;64162;53.508;10.476;2023-08-30T19:54:12;11.30;;;7.85;;
75584;SDS011;64162;53.508;10.476;2023-08-30T19:56:38;13.95;;;8.65;;
75584;SDS011;64162;53.508;10.476;2023-08-30T19:59:05;11.65;;;7.78;;
75584;SDS011;64162;53.508;10.476;2023-08-30T20:01:32;10.50;;;7.68;;
75584;SDS011;64162;53.508;10.476;2023-08-30T20:04:01;13.30;;;8.43;;
75584;SDS011;64162;53.508;10.476;2023-08-30T20:06:27;11.95;;;8.23;;
75584;SDS011;64162;53.508;10.476;2023-08-30T20:08:54;13.60;;;9.40;;
75584;SDS011;64162;53.508;10.476;2023-08-30T20:11:20;12.98;;;8.45;;
75584;SDS011;64162;53.508;10.476;2023-08-30T20:13:48;12.15;;;8.30;;
75584;SDS011;64162;53.508;10.476;2023-08-30T20:16:16;12.93;;;8.20;;
75584;SDS011;64162;53.508;10.476;2023-08-30T20:18:43;13.82;;;8.48;;
75584;SDS011;64162;53.508;10.476;2023-08-30T20:21:13;13.20;;;8.48;;
75584;SDS011;64162;53.508;10.476;2023-08-30T20:23:40;12.80;;;8.25;;
75584;SDS011;64162;53.508;10.476;2023-08-30T20:26:08;15.23;;;8.68;;
75584;SDS011;64162;53.508;10.476;2023-08-30T20:28:36;11.40;;;7.53;;
75584;SDS011;64162;53.508;10.476;2023-08-30T20:31:02;11.85;;;7.72;;
75584;SDS011;64162;53.508;10.476;2023-08-30T20:33:29;9.52;;;7.30;;
75584;SDS011;64162;53.508;10.476;2023-08-30T20:35:56;11.55;;;7.30;;
75584;SDS011;64162;53.508;10.476;2023-08-30T20:38:23;10.90;;;7.38;;
75584;SDS011;64162;53.508;10.476;2023-08-30T20:40:50;11.60;;;6.53;;
75584;SDS011;64162;53.508;10.476;2023-08-30T20:43:17;11.45;;;6.80;;
75584;SDS011;64162;53.508;10.476;2023-08-30T20:45:44;11.20;;;6.00;;
75584;SDS011;64162;53.508;10.476;2023-08-30T20:48:10;11.10;;;6.55;;
75584;SDS011;64162;53.508;10.476;2023-08-30T20:50:38;10.48;;;6.53;;
75584;SDS011;64162;53.508;10.476;2023-08-30T20:53:05;8.73;;;6.22;;
75584;SDS011;64162;53.508;10.476;2023-08-30T20:55:32;11.07;;;6.93;;
75584;SDS011;64162;53.508;10.476;2023-08-30T20:58:06;10.63;;;6.35;;
75584;SDS011;64162;53.508;10.476;2023-08-30T21:00:33;10.02;;;6.95;;
75584;SDS011;64162;53.508;10.476;2023-08-30T21:03:02;10.00;;;6.68;;
75584;SDS011;64162;53.508;10.476;2023-08-30T21:05:30;10.98;;;6.63;;
75584;SDS011;64162;53.508;10.476;2023-08-30T21:07:57;11.07;;;6.43;;
75584;SDS011;64162;53.508;10.476;2023-08-30T21:10:24;12.27;;;7.50;;
75584;SDS011;64162;53.508;10.476;2023-08-30T21:12:50;10.32;;;6.85;;
75584;SDS011;64162;53.508;10.476;2023-08-30T21:15:25;11.13;;;6.80;;
75584;SDS011;64162;53.508;10.476;2023-08-30T21:17:51;10.40;;;6.78;;
75584;SDS011;64162;53.508;10.476;2023-08-30T21:20:18;8.70;;;6.07;;
75584;SDS011;64162;53.508;10.476;2023-08-30T21:22:44;9.05;;;6.38;;
75584;SDS011;64162;53.508;10.476;2023-08-30T21:25:11;12.02;;;7.10;;
75584;SDS011;64162;53.508;10.476;2023-08-30T21:27:38;12.20;;;7.43;;
75584;SDS011;64162;53.508;10.476;2023-08-30T21:30:04;11.00;;;7.18;;
75584;SDS011;64162;53.508;10.476;2023-08-30T21:32:31;11.82;;;7.30;;
75584;SDS011;64162;53.508;10.476;2023-08-30T21:34:58;10.02;;;6.68;;
75584;SDS011;64162;53.508;10.476;2023-08-30T21:37:26;8.68;;;6.15;;
75584;SDS011;64162;53.508;10.476;2023-08-30T21:39:53;8.30;;;6.10;;
75584;SDS011;64162;53.508;10.476;2023-08-30T21:42:19;7.95;;;5.78;;
75584;SDS011;64162;53.508;10.476;2023-08-30T21:44:46;8.95;;;5.65;;
75584;SDS011;64162;53.508;10.476;2023-08-30T21:47:13;7.75;;;5.65;;
75584;SDS011;64162;53.508;10.476;2023-08-30T21:49:39;8.35;;;5.55;;
75584;SDS011;64162;53.508;10.476;2023-08-30T21:52:06;8.57;;;5.40;;
75584;SDS011;64162;53.508;10.476;2023-08-30T21:54:33;8.85;;;5.65;;
75584;SDS011;64162;53.508;10.476;2023-08-30T21:56:59;8.30;;;5.38;;
75584;SDS011;64162;53.508;10.476;2023-08-30T21:59:27;7.57;;;5.28;;
75584;SDS011;64162;53.508;10.476;2023-08-30T22:02:08;9.00;;;5.20;;
75584;SDS011;64162;53.508;10.476;2023-08-30T22:04:44;8.57;;;5.30;;
75584;SDS011;64162;53.508;10.476;2023-08-30T22:07:11;8.40;;;5.68;;
75584;SDS011;64162;53.508;10.476;2023-08-30T22:09:37;9.15;;;6.15;;
75584;SDS011;64162;53.508;10.476;2023-08-30T22:12:04;10.10;;;5.88;;
75584;SDS011;64162;53.508;10.476;2023-08-30T22:14:32;9.10;;;5.85;;
75584;SDS011;64162;53.508;10.476;2023-08-30T22:17:05;8.75;;;5.45;;
75584;SDS011;64162;53.508;10.476;2023-08-30T22:19:32;9.05;;;5.22;;
75584;SDS011;64162;53.508;10.476;2023-08-30T22:21:59;9.93;;;6.28;;
75584;SDS011;64162;53.508;10.476;2023-08-30T22:24:25;9.15;;;5.97;;
75584;SDS011;64162;53.508;10.476;2023-08-30T22:26:52;8.27;;;5.78;;
75584;SDS011;64162;53.508;10.476;2023-08-30T22:29:18;9.02;;;5.75;;
75584;SDS011;64162;53.508;10.476;2023-08-30T22:31:47;9.20;;;6.55;;
75584;SDS011;64162;53.508;10.476;2023-08-30T22:34:13;9.77;;;6.47;;
75584;SDS011;64162;53.508;10.476;2023-08-30T22:36:40;13.93;;;7.63;;
75584;SDS011;64162;53.508;10.476;2023-08-30T22:39:07;10.20;;;6.78;;
75584;SDS011;64162;53.508;10.476;2023-08-30T22:41:34;10.13;;;6.93;;
75584;SDS011;64162;53.508;10.476;2023-08-30T22:44:00;13.05;;;6.82;;
75584;SDS011;64162;53.508;10.476;2023-08-30T22:46:28;10.45;;;7.22;;
75584;SDS011;64162;53.508;10.476;2023-08-30T22:48:54;13.02;;;7.22;;
75584;SDS011;64162;53.508;10.476;2023-08-30T22:51:21;13.35;;;7.30;;
75584;SDS011;64162;53.508;10.476;2023-08-30T22:53:50;10.73;;;7.28;;
75584;SDS011;64162;53.508;10.476;2023-08-30T22:56:17;10.25;;;6.95;;
75584;SDS011;64162;53.508;10.476;2023-08-30T22:58:43;11.07;;;7.55;;
75584;SDS011;64162;53.508;10.476;2023-08-30T23:01:10;10.27;;;7.28;;
75584;SDS011;64162;53.508;10.476;2023-08-30T23:03:37;12.35;;;7.50;;
75584;SDS011;64162;53.508;10.476;2023-08-30T23:06:03;11.82;;;7.47;;
75584;SDS011;64162;53.508;10.476;2023-08-30T23:08:30;11.82;;;7.82;;
75584;SDS011;64162;53.508;10.476;2023-08-30T23:10:57;12.00;;;8.20;;
75584;SDS011;64162;53.508;10.476;2023-08-30T23:13:24;13.63;;;8.10;;
75584;SDS011;64162;53.508;10.476;2023-08-30T23:15:50;12.68;;;8.20;;
75584;SDS011;64162;53.508;10.476;2023-08-30T23:18:17;11.70;;;7.43;;
75584;SDS011;64162;53.508;10.476;2023-08-30T23:20:44;14.10;;;9.27;;
75584;SDS011;64162;53.508;10.476;2023-08-30T23:23:10;14.45;;;8.60;;
75584;SDS011;64162;53.508;10.476;2023-08-30T23:25:38;15.25;;;9.35;;
75584;SDS011;64162;53.508;10.476;2023-08-30T23:28:05;12.05;;;7.78;;
75584;SDS011;64162;53.508;10.476;2023-08-30T23:30:32;14.60;;;8.98;;
75584;SDS011;64162;53.508;10.476;2023-08-30T23:32:59;13.30;;;8.43;;
75584;SDS011;64162;53.508;10.476;2023-08-30T23:35:26;13.60;;;8.77;;
75584;SDS011;64162;53.508;10.476;2023-08-30T23:37:56;16.20;;;8.68;;
75584;SDS011;64162;53.508;10.476;2023-08-30T23:40:23;14.48;;;8.82;;
75584;SDS011;64162;53.508;10.476;2023-08-30T23:42:50;14.38;;;8.57;;
75584;SDS011;64162;53.508;10.476;2023-08-30T23:45:16;13.10;;;8.73;;
75584;SDS011;64162;53.508;10.476;2023-08-30T23:47:43;13.55;;;8.75;;
75584;SDS011;64162;53.508;10.476;2023-08-30T23:50:10;15.27;;;9.25;;
75584;SDS011;64162;53.508;10.476;2023-08-30T23:52:36;15.38;;;8.70;;
75584;SDS011;64162;53.508;10.476;2023-08-30T23:55:03;14.27;;;9.20;;
75584;SDS011;64162;53.508;10.476;2023-08-30T23:57:30;16.05;;;9.50;;
75584;SDS011;64162;53.508;10.476;2023-08-30T23:59:57;13.48;;;8.25;;
